Warning: Javascript must be enabled to use all the features on this page!


Page Loading - Please Wait...

Click to hideNews Bulletins

Peak Streamflow for the Nation

USGS 04189000 Blanchard River near Findlay OH

Hancock County, Ohio
Hydrologic Unit Code 04100008
Latitude  41°03'21", Longitude  83°41'17" NAD27
Drainage area 346  square miles
Contributing drainage area 346  square miles
Gage datum 753.76 feet above NAVD88
Output formats
Table
Graph
Tab-separated file
peakfq (watstore) format
Reselect output format
Water
Year
Date Gage
Height
(feet)
Stream-
flow
(cfs)
1913 1913-03 18.503,Bd 22,0007,Bd
1924 1924-03-30 10.92 4,280
1925 1924-12-19 8.20 2,980
1926 1926-09-05 11.10 4,380
1927 1927-03-21 13.20 7,460
1928 1927-12-01 15.40 11,800
1929 1929-01-19 12.10 6,010
1930 1930-01-15 14.00 8,580
1931 1931-04-03 4.72 1,290
1932 1932-01-18 9.07 3,400
1933 1933-03-14 11.89 5,760
1934 1934-03-29 5.55 1,700
1935 1935-05-04 8.16 2,900
1936 1936-02-27 12.63 6,660
1941 1941-01-02 4.05 958
1942 1942-04-10 11.80 5,760
1943 1943-05-18 10.30 4,520
1944 1944-04-12 11.30 5,340
1945 1945-06-20 12.20 6,140
1946 1946-06-18 12.40 6,400
1947 1947-06-08 13.73 8,160
1948 1948-03-22 10.652 4,930
1949 1949-02-16 10.17 3,900
1950 1950-02-15 14.71 10,200
1951 1950-11-21 11.28 4,900
1952 1952-01-27 13.01 7,020
1953 1953-05-18 7.63 2,370
1954 1954-04-17 7.75 2,470
1955 1955-03-04 11.46 5,100
1956 1956-02-26 11.10 4,700
1957 1957-04-06 12.72 6,580
1958 1957-12-07 7.76 2,470
1959 1959-02-11 16.76 12,100
1960 1960-02-11 9.48 3,370
1961 1961-04-26 11.95 5,620
1962 1962-01-27 10.76 4,380
1963 1963-03-06 13.44 7,660
1964 1964-04-22 12.88 6,830
1965 1965-03-05 7.28 2,290
1966 1966-07-13 13.25 7,410
1967 1967-05-08 11.91 5,710
1968 1968-01-30 11.94 4,590
1969 1969-05-19 12.51 6,410
1970 1970-03-05 10.23 4,180
1971 1971-02-23 9.37 3,540
1972 1972-04-23 12.04 5,850
1973 1973-05-27 12.85 6,850
1974 1974-01-20 13.25 7,410
1975 1975-02-24 14.28 8,860
1976 1976-02-17 12.95 7,070
1977 1977-09-17 8.60 3,150
1978 1978-03-17 12.42 6,400
1979 1979-04-14 12.33 6,300
1980 1980-03-22 11.17 4,980
1981 1981-06-14 17.43 13,000
1982 1982-03-13 12.35 6,320
1983 1983-05-03 8.59 3,140
1984 1984-04-23 12.51 6,510
1985 1985-02-24 12.40 6,380
1986 1986-02-05 10.01 4,060
1987 1986-12-03 7.93 2,780
1988 1988-02-02 5.35 1,530
1989 1989-05-26 10.04 4,080
1990 1990-02-17 11.15 4,960
1991 1990-12-31 14.85 9,670
1992 1992-07-15 11.74 5,610
1993 1992-11-13 11.96 5,020
1994 1994-01-29 11.23 4,420
1995 1995-04-12 9.76 3,480
1996 1996-01-20 12.31 5,340
1997 1997-06-02 15.42 9,630
1998 1998-01-08 12.21 5,990
1999 1999-01-24 11.233 5,060
2000 2000-06-19 10.36 4,450
2001 2001-04-21 6.55 2,290
2002 2002-02-01 11.80 5,590
2003 2003-05-10 13.16 7,710
2004 2004-05-22 12.21 6,750
2005 2005-01-13 12.79 7,290
2006 2006-01-03 10.88 5,260
2007 2007-08-22 18.463 14,500
2008 2008-02-07 16.50 10,500
2009 2009-03-09 15.41 8,930
2010 2010-03-11 8.10 2,750
2011 2011-03-01 16.34 10,200
2012 2011-11-30 13.30 6,480
2013 2013-04-12 14.09 7,350
2014 2013-12-23 15.55 9,110
2015 2015-06-17 13.02 6,180
2016 2015-12-29 11.82 5,010
2017 2017-07-14 16.53 10,100
2018 2017-11-19 13.04 6,030
2019 2019-06-02 14.06 6,990
2020 2020-03-29   5,040
?
  Peak Gage-Height Qualification Codes.
?
  Peak Streamflow Qualification Codes.